createdAt,value
2023-01-19T00:03:04.564Z,14.10
2023-01-19T00:08:14.925Z,11.65
2023-01-19T00:13:17.395Z,11.80
2023-01-19T00:18:19.752Z,13.07
2023-01-19T00:23:22.007Z,11.27
2023-01-19T00:28:24.053Z,14.93
2023-01-19T00:33:26.175Z,12.27
2023-01-19T00:38:28.289Z,8.15
2023-01-19T00:43:30.407Z,10.90
2023-01-19T00:48:32.571Z,9.77
2023-01-19T00:53:34.793Z,11.20
2023-01-19T00:58:36.940Z,11.73
2023-01-19T01:03:39.037Z,11.18
2023-01-19T01:08:41.151Z,10.52
2023-01-19T01:13:44.334Z,9.63
2023-01-19T01:18:46.701Z,12.68
2023-01-19T01:23:48.834Z,9.45
2023-01-19T01:28:50.966Z,10.82
2023-01-19T01:33:53.077Z,10.95
2023-01-19T01:38:55.237Z,11.45
2023-01-19T01:43:58.989Z,12.38
2023-01-19T01:49:07.833Z,12.05
2023-01-19T01:54:26.132Z,9.50
2023-01-19T01:59:34.958Z,12.10
2023-01-19T02:04:38.525Z,11.82
2023-01-19T02:09:59.565Z,12.60
2023-01-19T02:15:01.647Z,13.75
2023-01-19T02:20:05.448Z,13.45
2023-01-19T02:25:07.850Z,12.40
2023-01-19T02:30:10.998Z,12.20
2023-01-19T02:35:13.383Z,12.20
2023-01-19T02:40:22.203Z,10.88
2023-01-19T02:45:24.725Z,15.07
2023-01-19T02:50:52.318Z,12.80
2023-01-19T02:56:03.849Z,13.52
2023-01-19T03:01:24.079Z,12.50
2023-01-19T03:06:44.788Z,13.80
2023-01-19T03:11:54.379Z,10.95
2023-01-19T03:17:02.700Z,12.68
2023-01-19T03:22:09.846Z,13.35
2023-01-19T03:27:25.511Z,10.45
2023-01-19T03:32:36.305Z,11.10
2023-01-19T03:37:43.363Z,10.48
2023-01-19T03:42:46.377Z,9.90
2023-01-19T03:47:48.855Z,11.05
2023-01-19T03:53:13.988Z,7.25
2023-01-19T03:58:16.029Z,11.88
2023-01-19T04:03:18.515Z,10.38
2023-01-19T04:08:20.561Z,10.48
2023-01-19T04:13:22.680Z,11.38
2023-01-19T04:18:24.754Z,11.65
2023-01-19T04:23:27.114Z,11.43
2023-01-19T04:28:29.633Z,10.95
2023-01-19T04:33:31.744Z,12.20
2023-01-19T04:38:33.901Z,9.32
2023-01-19T04:43:35.975Z,10.40
2023-01-19T04:48:38.056Z,12.55
2023-01-19T04:53:40.191Z,10.48
2023-01-19T04:58:42.261Z,11.63
2023-01-19T05:03:44.292Z,12.10
2023-01-19T05:08:46.367Z,9.75
2023-01-19T05:13:50.221Z,13.10
2023-01-19T05:18:53.008Z,12.93
2023-01-19T05:23:55.180Z,14.35
2023-01-19T05:28:57.387Z,14.15
2023-01-19T05:33:59.454Z,12.52
2023-01-19T05:39:01.578Z,12.63
2023-01-19T05:44:03.757Z,13.60
2023-01-19T05:49:07.503Z,12.82
2023-01-19T05:54:10.169Z,13.50
2023-01-19T05:59:13.348Z,14.77
2023-01-19T06:04:15.376Z,14.23
2023-01-19T06:09:18.394Z,15.57
2023-01-19T06:14:20.439Z,14.43
2023-01-19T06:19:22.490Z,15.23
2023-01-19T06:24:25.369Z,16.85
2023-01-19T06:29:28.744Z,16.58
2023-01-19T06:34:31.518Z,15.35
2023-01-19T06:39:33.628Z,14.88
2023-01-19T06:44:35.689Z,13.77
2023-01-19T06:49:37.771Z,16.48
2023-01-19T06:54:40.004Z,18.17
2023-01-19T06:59:42.181Z,15.23
2023-01-19T07:04:44.252Z,11.77
2023-01-19T07:09:46.320Z,17.00
2023-01-19T07:14:50.444Z,16.30
2023-01-19T07:19:52.521Z,13.70
2023-01-19T07:24:54.678Z,8.23
2023-01-19T07:29:56.884Z,15.90
2023-01-19T07:34:58.993Z,16.58
2023-01-19T07:40:01.274Z,18.17
2023-01-19T07:45:05.867Z,15.85
2023-01-19T07:50:08.685Z,17.90
2023-01-19T07:55:10.840Z,19.02
2023-01-19T08:00:14.574Z,11.48
2023-01-19T08:05:18.473Z,15.27
2023-01-19T08:10:23.063Z,17.38
2023-01-19T08:15:25.793Z,9.52
2023-01-19T08:20:29.016Z,15.20
2023-01-19T08:25:39.595Z,15.98
2023-01-19T08:30:44.387Z,13.75
2023-01-19T08:35:50.367Z,15.13
2023-01-19T08:40:52.423Z,16.33
2023-01-19T08:45:56.534Z,15.95
2023-01-19T08:50:59.433Z,15.10
2023-01-19T08:56:02.332Z,17.73
2023-01-19T09:01:04.694Z,18.10
2023-01-19T09:06:07.872Z,17.33
2023-01-19T09:11:11.524Z,17.17
2023-01-19T09:16:15.275Z,17.33
2023-01-19T09:21:18.652Z,19.83
2023-01-19T09:26:22.408Z,18.13
2023-01-19T09:31:24.671Z,17.92
2023-01-19T09:36:26.782Z,22.20
2023-01-19T09:41:29.759Z,20.55
2023-01-19T09:46:41.754Z,24.05
2023-01-19T09:51:47.202Z,21.50
2023-01-19T09:56:52.693Z,23.35
2023-01-19T10:02:25.651Z,22.30
2023-01-19T10:07:55.043Z,23.90
2023-01-19T10:13:19.243Z,22.42
2023-01-19T10:18:26.737Z,22.30
2023-01-19T10:23:45.753Z,19.65
2023-01-19T10:28:51.394Z,23.67
2023-01-19T10:33:54.600Z,18.85
2023-01-19T10:38:56.716Z,21.52
2023-01-19T10:44:02.024Z,22.92
2023-01-19T10:49:04.980Z,23.92
2023-01-19T10:54:13.272Z,20.95
2023-01-19T10:59:34.902Z,18.92
2023-01-19T11:04:36.997Z,21.98
2023-01-19T11:09:39.050Z,21.23
2023-01-19T11:14:41.224Z,23.00
2023-01-19T11:19:43.547Z,19.67
2023-01-19T11:24:45.741Z,19.15
2023-01-19T11:30:00.914Z,21.65
2023-01-19T11:35:30.810Z,22.92
2023-01-19T11:40:35.290Z,23.55
2023-01-19T11:45:37.731Z,25.65
2023-01-19T11:50:43.982Z,21.40
2023-01-19T11:55:51.018Z,24.08
2023-01-19T12:01:23.191Z,13.05
2023-01-19T12:06:33.075Z,27.77
2023-01-19T12:11:40.621Z,25.65
2023-01-19T12:16:44.110Z,26.75
2023-01-19T12:21:49.404Z,27.65
2023-01-19T12:26:58.886Z,25.00
2023-01-19T12:32:22.036Z,25.70
2023-01-19T12:37:39.276Z,23.35
2023-01-19T12:42:47.114Z,24.58
2023-01-19T12:47:54.051Z,24.23
2023-01-19T12:53:02.001Z,24.35
2023-01-19T12:58:12.958Z,25.25
2023-01-19T13:03:17.808Z,24.97
2023-01-19T13:08:22.666Z,22.52
2023-01-19T13:13:24.666Z,25.98
2023-01-19T13:18:29.905Z,27.70
2023-01-19T13:23:47.218Z,25.30
2023-01-19T13:28:53.318Z,28.13
2023-01-19T13:33:58.300Z,26.50
2023-01-19T13:39:04.071Z,24.80
2023-01-19T13:44:19.275Z,24.25
2023-01-19T13:49:30.486Z,27.13
2023-01-19T13:54:32.561Z,26.80
2023-01-19T13:59:34.634Z,23.88
2023-01-19T14:04:36.791Z,26.13
2023-01-19T14:09:39.951Z,26.33
2023-01-19T14:14:45.200Z,13.57
2023-01-19T14:19:51.464Z,22.17
2023-01-19T14:24:53.516Z,23.65
2023-01-19T14:30:19.012Z,21.08
2023-01-19T14:35:25.539Z,23.70
2023-01-19T14:40:27.743Z,23.88
2023-01-19T14:45:42.820Z,24.33
2023-01-19T14:51:02.071Z,22.83
2023-01-19T14:56:06.912Z,24.13
2023-01-19T15:01:09.343Z,20.35
2023-01-19T15:06:17.045Z,15.68
2023-01-19T15:11:28.583Z,24.35
2023-01-19T15:16:34.242Z,23.15
2023-01-19T15:21:40.765Z,19.67
2023-01-19T15:26:43.348Z,15.35
2023-01-19T15:31:45.592Z,18.42
2023-01-19T15:36:47.668Z,13.77
2023-01-19T15:41:49.707Z,15.77
2023-01-19T15:46:54.480Z,15.40
2023-01-19T15:51:57.071Z,16.35
2023-01-19T15:56:59.268Z,7.97
2023-01-19T16:02:01.848Z,14.10
2023-01-19T16:07:04.091Z,14.77
2023-01-19T16:12:06.404Z,17.25
2023-01-19T16:17:08.550Z,13.70
2023-01-19T16:22:12.079Z,16.40
2023-01-19T16:27:14.158Z,16.83
2023-01-19T16:32:17.065Z,17.33
2023-01-19T16:37:19.171Z,18.67
2023-01-19T16:42:21.451Z,16.45
2023-01-19T16:47:23.545Z,16.95
2023-01-19T16:52:25.632Z,12.48
2023-01-19T16:57:28.828Z,15.27
2023-01-19T17:02:31.029Z,15.27
2023-01-19T17:07:33.166Z,13.85
2023-01-19T17:12:35.291Z,15.70
2023-01-19T17:17:38.159Z,15.00
2023-01-19T17:22:40.528Z,17.10
2023-01-19T17:27:42.590Z,10.60
2023-01-19T17:32:44.693Z,9.73
2023-01-19T17:37:46.803Z,15.88
2023-01-19T17:42:49.027Z,13.23
2023-01-19T17:47:51.270Z,16.58
2023-01-19T17:52:53.340Z,19.00
2023-01-19T17:57:55.494Z,19.73
2023-01-19T18:02:57.784Z,20.88
2023-01-19T18:08:00.581Z,21.25
2023-01-19T18:13:02.760Z,15.95
2023-01-19T18:18:05.030Z,16.80
2023-01-19T18:23:07.216Z,22.38
2023-01-19T18:28:09.572Z,17.23
2023-01-19T18:33:11.661Z,21.48
2023-01-19T18:38:14.074Z,24.52
2023-01-19T18:43:16.257Z,20.02
2023-01-19T18:48:18.649Z,23.90
2023-01-19T18:53:21.427Z,25.50
2023-01-19T18:58:24.750Z,21.35
2023-01-19T19:03:27.909Z,26.00
2023-01-19T19:08:30.127Z,24.15
2023-01-19T19:13:32.173Z,27.88
2023-01-19T19:18:35.511Z,28.33
2023-01-19T19:23:38.788Z,28.27
2023-01-19T19:28:40.948Z,25.40
2023-01-19T19:33:43.062Z,28.17
2023-01-19T19:38:47.580Z,27.63
2023-01-19T19:43:50.514Z,26.20
2023-01-19T19:48:53.485Z,26.60
2023-01-19T19:53:58.768Z,25.67
2023-01-19T19:59:01.278Z,26.08
2023-01-19T20:04:08.790Z,23.42
2023-01-19T20:09:14.860Z,26.83
2023-01-19T20:14:16.974Z,26.40
2023-01-19T20:19:19.065Z,25.98
2023-01-19T20:24:21.352Z,25.98
2023-01-19T20:29:23.665Z,26.02
2023-01-19T20:34:32.093Z,23.52
2023-01-19T20:39:36.851Z,25.90
2023-01-19T20:44:39.517Z,23.23
2023-01-19T20:49:42.517Z,27.98
2023-01-19T20:54:44.604Z,25.45
2023-01-19T20:59:46.637Z,27.67
2023-01-19T21:04:48.860Z,27.40
2023-01-19T21:09:50.889Z,29.63
2023-01-19T21:14:52.931Z,26.05
2023-01-19T21:19:55.155Z,25.42
2023-01-19T21:24:57.274Z,28.63
2023-01-19T21:30:00.983Z,33.38
2023-01-19T21:35:03.102Z,31.92
2023-01-19T21:40:06.671Z,30.17
2023-01-19T21:45:08.962Z,28.98
2023-01-19T21:50:11.461Z,27.60
2023-01-19T21:55:13.704Z,18.95
2023-01-19T22:00:16.649Z,26.45
2023-01-19T22:05:18.788Z,27.83
2023-01-19T22:10:20.977Z,30.50
2023-01-19T22:15:23.027Z,28.40
2023-01-19T22:20:25.137Z,29.42
2023-01-19T22:25:28.060Z,30.33
2023-01-19T22:30:30.392Z,30.05
2023-01-19T22:35:32.471Z,29.77
2023-01-19T22:40:34.598Z,25.05
2023-01-19T22:45:41.497Z,15.32
2023-01-19T22:50:43.586Z,22.35
2023-01-19T22:55:45.595Z,27.83
2023-01-19T23:00:47.784Z,31.08
2023-01-19T23:05:49.887Z,23.30
2023-01-19T23:10:51.937Z,31.30
2023-01-19T23:15:54.209Z,25.67
2023-01-19T23:20:56.552Z,27.33
2023-01-19T23:26:04.169Z,29.17
2023-01-19T23:31:34.403Z,29.10
2023-01-19T23:36:39.421Z,24.57
2023-01-19T23:41:41.751Z,28.60
2023-01-19T23:46:44.114Z,25.90
2023-01-19T23:51:46.182Z,26.38
2023-01-19T23:56:48.335Z,26.20
